createdAt,value
2022-11-14T00:03:10.460Z,11.00
2022-11-14T00:07:12.494Z,10.70
2022-11-14T00:11:14.366Z,10.70
2022-11-14T00:15:16.222Z,10.70
2022-11-14T00:19:18.093Z,10.80
2022-11-14T00:23:21.358Z,11.00
2022-11-14T00:27:23.293Z,11.30
2022-11-14T00:31:25.345Z,11.30
2022-11-14T00:35:27.161Z,11.40
2022-11-14T00:39:29.008Z,11.40
2022-11-14T00:43:30.890Z,11.30
2022-11-14T00:47:32.669Z,11.00
2022-11-14T00:51:34.516Z,11.10
2022-11-14T00:55:36.367Z,11.10
2022-11-14T00:59:38.157Z,11.00
2022-11-14T01:03:40.012Z,11.00
2022-11-14T01:07:41.886Z,10.90
2022-11-14T01:11:43.718Z,11.00
2022-11-14T01:15:47.973Z,10.90
2022-11-14T01:19:49.865Z,11.00
2022-11-14T01:23:51.715Z,11.20
2022-11-14T01:27:53.594Z,11.20
2022-11-14T01:31:55.704Z,11.40
2022-11-14T01:36:00.223Z,11.50
2022-11-14T01:40:02.026Z,11.30
2022-11-14T01:44:05.470Z,10.80
2022-11-14T01:48:37.564Z,10.90
2022-11-14T01:52:41.353Z,11.00
2022-11-14T01:56:54.988Z,10.60
2022-11-14T02:00:57.998Z,10.70
2022-11-14T02:05:14.686Z,10.40
2022-11-14T02:09:16.767Z,10.30
2022-11-14T02:13:18.657Z,11.10
2022-11-14T02:17:29.987Z,10.40
2022-11-14T02:21:32.610Z,10.60
2022-11-14T02:25:34.489Z,10.80
2022-11-14T02:29:36.524Z,10.90
2022-11-14T02:33:38.325Z,10.80
2022-11-14T02:37:40.165Z,10.60
2022-11-14T02:41:42.161Z,10.70
2022-11-14T02:45:44.034Z,10.80
2022-11-14T02:49:45.852Z,11.20
2022-11-14T02:53:47.699Z,11.20
2022-11-14T02:57:49.547Z,10.90
2022-11-14T03:01:51.469Z,10.80
2022-11-14T03:05:53.582Z,10.90
2022-11-14T03:09:55.409Z,11.00
2022-11-14T03:13:57.283Z,10.70
2022-11-14T03:17:59.073Z,10.50
2022-11-14T03:22:00.922Z,10.40
2022-11-14T03:26:05.126Z,10.40
2022-11-14T03:30:07.569Z,10.20
2022-11-14T03:34:10.806Z,10.10
2022-11-14T03:38:12.633Z,10.10
2022-11-14T03:42:14.470Z,10.10
2022-11-14T03:46:16.313Z,10.10
2022-11-14T03:50:18.250Z,10.20
2022-11-14T03:54:20.116Z,10.30
2022-11-14T03:58:22.004Z,10.20
2022-11-14T04:02:23.892Z,10.40
2022-11-14T04:06:25.742Z,10.10
2022-11-14T04:10:27.654Z,10.10
2022-11-14T04:14:29.559Z,10.70
2022-11-14T04:18:31.655Z,10.20
2022-11-14T04:22:33.737Z,10.20
2022-11-14T04:26:35.592Z,10.20
2022-11-14T04:30:37.500Z,9.80
2022-11-14T04:34:39.337Z,10.40
2022-11-14T04:38:41.210Z,10.30
2022-11-14T04:42:43.060Z,10.50
2022-11-14T04:46:45.111Z,10.60
2022-11-14T04:50:47.040Z,10.50
2022-11-14T04:54:48.852Z,10.50
2022-11-14T04:58:50.949Z,10.30
2022-11-14T05:02:52.759Z,10.20
2022-11-14T05:06:54.658Z,10.30
2022-11-14T05:10:56.650Z,10.30
2022-11-14T05:14:58.466Z,10.30
2022-11-14T05:19:00.401Z,10.20
2022-11-14T05:23:02.245Z,10.30
2022-11-14T05:27:04.093Z,10.40
2022-11-14T05:31:08.272Z,10.70
2022-11-14T05:35:10.189Z,10.70
2022-11-14T05:39:12.058Z,10.80
2022-11-14T05:43:13.856Z,10.50
2022-11-14T05:47:15.693Z,10.50
2022-11-14T05:51:17.592Z,10.50
2022-11-14T05:55:24.391Z,10.40
2022-11-14T05:59:27.496Z,10.40
2022-11-14T06:03:37.998Z,10.50
2022-11-14T06:07:39.876Z,10.50
2022-11-14T06:11:41.766Z,10.50
2022-11-14T06:15:43.592Z,10.50
2022-11-14T06:19:45.450Z,10.30
2022-11-14T06:23:48.045Z,10.20
2022-11-14T06:27:49.890Z,10.10
2022-11-14T06:31:51.748Z,10.20
2022-11-14T06:36:05.118Z,10.30
2022-11-14T06:40:07.705Z,10.40
2022-11-14T06:44:09.583Z,10.50
2022-11-14T06:48:11.409Z,10.40
2022-11-14T06:52:13.273Z,10.40
2022-11-14T06:56:17.109Z,10.70
2022-11-14T07:00:19.253Z,10.60
2022-11-14T07:04:21.035Z,10.70
2022-11-14T07:08:22.937Z,10.70
2022-11-14T07:12:24.803Z,10.90
2022-11-14T07:16:32.242Z,11.10
2022-11-14T07:20:34.025Z,11.30
2022-11-14T07:24:35.840Z,11.80
2022-11-14T07:28:41.096Z,12.40
2022-11-14T07:32:42.965Z,12.90
2022-11-14T07:36:45.246Z,13.90
2022-11-14T07:41:06.796Z,14.60
2022-11-14T07:45:09.449Z,15.30
2022-11-14T07:49:11.278Z,15.60
2022-11-14T07:53:13.368Z,16.10
2022-11-14T07:57:15.218Z,16.50
2022-11-14T08:01:17.103Z,17.20
2022-11-14T08:05:18.985Z,17.40
2022-11-14T08:09:20.802Z,18.00
2022-11-14T08:13:32.026Z,18.20
2022-11-14T08:17:34.583Z,18.40
2022-11-14T08:21:36.804Z,18.50
2022-11-14T08:25:38.658Z,18.70
2022-11-14T08:29:40.475Z,18.70
2022-11-14T08:33:42.417Z,18.90
2022-11-14T08:37:44.327Z,18.80
2022-11-14T08:41:46.160Z,18.80
2022-11-14T08:45:48.023Z,19.00
2022-11-14T08:49:49.867Z,19.30
2022-11-14T08:53:52.570Z,18.90
2022-11-14T08:57:54.908Z,19.30
2022-11-14T09:01:56.728Z,19.90
2022-11-14T09:05:58.974Z,20.00
2022-11-14T09:10:00.893Z,19.60
2022-11-14T09:14:02.875Z,20.00
2022-11-14T09:18:04.728Z,19.70
2022-11-14T09:22:06.566Z,19.30
2022-11-14T09:26:09.870Z,19.50
2022-11-14T09:30:12.778Z,19.10
2022-11-14T09:34:14.863Z,19.10
2022-11-14T09:38:16.728Z,19.50
2022-11-14T09:42:27.358Z,19.60
2022-11-14T09:46:39.209Z,19.50
2022-11-14T09:50:47.070Z,19.40
2022-11-14T09:55:02.787Z,19.20
2022-11-14T09:59:09.196Z,19.00
2022-11-14T10:03:16.650Z,19.20
2022-11-14T10:07:34.853Z,19.50
2022-11-14T10:11:43.746Z,18.70
2022-11-14T10:15:51.409Z,18.30
2022-11-14T10:20:03.695Z,17.10
2022-11-14T10:24:09.556Z,18.00
2022-11-14T10:28:29.883Z,18.40
2022-11-14T10:32:53.712Z,18.40
2022-11-14T10:36:58.498Z,18.20
2022-11-14T10:41:06.827Z,18.90
2022-11-14T10:45:34.825Z,18.90
2022-11-14T10:49:37.712Z,19.00
2022-11-14T10:54:00.330Z,18.90
2022-11-14T10:58:02.341Z,19.00
2022-11-14T11:02:04.197Z,19.30
2022-11-14T11:06:06.199Z,19.60
2022-11-14T11:10:37.936Z,19.30
2022-11-14T11:14:40.036Z,19.90
2022-11-14T11:18:41.950Z,20.50
2022-11-14T11:22:43.758Z,20.40
2022-11-14T11:26:45.634Z,19.90
2022-11-14T11:31:05.526Z,19.80
2022-11-14T11:35:15.991Z,19.80
2022-11-14T11:39:26.629Z,19.80
2022-11-14T11:43:38.825Z,20.30
2022-11-14T11:47:43.082Z,21.20
2022-11-14T11:51:46.516Z,21.40
2022-11-14T11:55:56.501Z,21.10
2022-11-14T12:00:21.336Z,21.70
2022-11-14T12:04:23.224Z,20.60
2022-11-14T12:08:49.829Z,20.90
2022-11-14T12:13:12.257Z,21.10
2022-11-14T12:17:27.150Z,21.00
2022-11-14T12:21:47.780Z,20.90
2022-11-14T12:25:49.641Z,20.90
2022-11-14T12:30:31.129Z,19.60
2022-11-14T12:34:40.020Z,19.50
2022-11-14T12:38:49.341Z,20.30
2022-11-14T12:42:51.743Z,20.70
2022-11-14T12:47:13.546Z,20.60
2022-11-14T12:51:27.629Z,20.60
2022-11-14T12:55:29.485Z,20.50
2022-11-14T12:59:49.296Z,20.40
2022-11-14T13:04:17.241Z,20.00
2022-11-14T13:08:43.733Z,19.60
2022-11-14T13:13:29.315Z,19.60
2022-11-14T13:17:49.884Z,19.50
2022-11-14T13:22:32.437Z,19.30
2022-11-14T13:26:34.238Z,19.10
2022-11-14T13:31:18.313Z,19.00
2022-11-14T13:36:05.820Z,18.90
2022-11-14T13:40:22.841Z,18.80
2022-11-14T13:44:27.399Z,19.00
2022-11-14T13:48:58.832Z,19.00
2022-11-14T13:53:01.161Z,18.70
2022-11-14T13:57:26.455Z,18.70
2022-11-14T14:01:45.313Z,18.70
2022-11-14T14:06:25.217Z,18.70
2022-11-14T14:10:40.446Z,18.80
2022-11-14T14:15:08.665Z,18.70
2022-11-14T14:19:32.164Z,18.50
2022-11-14T14:23:52.710Z,18.20
2022-11-14T14:28:03.157Z,17.80
2022-11-14T14:32:13.865Z,17.30
2022-11-14T14:36:20.078Z,16.70
2022-11-14T14:40:29.350Z,16.50
2022-11-14T14:44:37.413Z,16.20
2022-11-14T14:48:40.661Z,15.80
2022-11-14T14:52:43.016Z,15.60
2022-11-14T14:57:00.022Z,15.70
2022-11-14T15:01:09.284Z,15.90
2022-11-14T15:05:11.848Z,15.80
2022-11-14T15:09:21.680Z,15.20
2022-11-14T15:13:25.283Z,14.20
2022-11-14T15:17:31.613Z,13.80
2022-11-14T15:21:36.452Z,13.80
2022-11-14T15:25:38.414Z,13.90
2022-11-14T15:29:48.865Z,14.10
2022-11-14T15:34:22.910Z,13.60
2022-11-14T15:42:47.178Z,13.20
2022-11-14T15:46:49.748Z,11.70
2022-11-14T15:50:51.715Z,12.00
2022-11-14T15:54:53.587Z,12.30
2022-11-14T15:58:55.527Z,12.10
2022-11-14T16:02:58.021Z,11.60
2022-11-14T16:07:00.414Z,11.20
2022-11-14T16:11:02.282Z,11.00
2022-11-14T16:15:04.584Z,11.10
2022-11-14T16:19:06.817Z,11.10
2022-11-14T16:23:12.353Z,10.90
2022-11-14T16:27:15.440Z,10.70
2022-11-14T16:31:18.004Z,10.50
2022-11-14T16:35:22.568Z,10.30
2022-11-14T16:39:24.476Z,10.10
2022-11-14T16:43:26.332Z,10.00
2022-11-14T16:47:28.679Z,9.60
2022-11-14T16:51:47.626Z,9.70
2022-11-14T16:55:51.079Z,9.70
2022-11-14T16:59:52.939Z,9.80
2022-11-14T17:03:56.795Z,10.20
2022-11-14T17:07:58.657Z,10.30
2022-11-14T17:12:00.499Z,10.30
2022-11-14T17:16:03.349Z,10.40
2022-11-14T17:20:05.803Z,10.30
2022-11-14T17:24:09.347Z,10.40
2022-11-14T17:28:11.160Z,9.70
2022-11-14T17:32:12.981Z,9.30
2022-11-14T17:36:14.934Z,9.30
2022-11-14T17:40:17.128Z,9.20
2022-11-14T17:44:19.060Z,9.40
2022-11-14T17:48:20.917Z,9.50
2022-11-14T17:52:22.938Z,9.50
2022-11-14T17:56:26.262Z,10.90
2022-11-14T18:00:28.066Z,9.70
2022-11-14T18:04:31.918Z,10.10
2022-11-14T18:08:35.147Z,10.10
2022-11-14T18:12:37.183Z,9.90
2022-11-14T18:17:05.552Z,9.30
2022-11-14T18:21:15.438Z,8.70
2022-11-14T18:25:17.396Z,8.70
2022-11-14T18:29:19.321Z,9.10
2022-11-14T18:33:21.185Z,8.80
2022-11-14T18:37:23.472Z,8.90
2022-11-14T18:41:25.346Z,8.50
2022-11-14T18:45:27.193Z,8.60
2022-11-14T18:49:29.016Z,7.90
2022-11-14T18:53:32.885Z,8.30
2022-11-14T18:57:34.877Z,8.60
2022-11-14T19:01:37.079Z,8.80
2022-11-14T19:05:38.987Z,8.00
2022-11-14T19:09:41.019Z,7.80
2022-11-14T19:13:42.908Z,7.70
2022-11-14T19:17:47.579Z,8.20
2022-11-14T19:21:52.438Z,8.10
2022-11-14T19:26:01.659Z,8.30
2022-11-14T19:30:03.682Z,8.20
2022-11-14T19:34:05.974Z,8.20
2022-11-14T19:38:07.827Z,7.90
2022-11-14T19:42:09.677Z,7.80
2022-11-14T19:46:11.641Z,7.40
2022-11-14T19:50:15.675Z,7.40
2022-11-14T19:54:17.991Z,7.20
2022-11-14T19:58:19.820Z,6.80
2022-11-14T20:02:21.944Z,7.00
2022-11-14T20:06:35.629Z,7.10
2022-11-14T20:10:47.880Z,7.30
2022-11-14T20:14:49.857Z,7.00
2022-11-14T20:18:58.848Z,6.90
2022-11-14T20:23:01.373Z,6.80
2022-11-14T20:27:03.253Z,6.50
2022-11-14T20:31:07.724Z,6.40
2022-11-14T20:35:09.634Z,6.90
2022-11-14T20:39:11.478Z,7.20
2022-11-14T20:43:13.343Z,7.10
2022-11-14T20:47:15.319Z,7.20
2022-11-14T20:51:23.102Z,6.90
2022-11-14T20:55:25.058Z,6.50
2022-11-14T20:59:26.924Z,6.70
2022-11-14T21:03:29.217Z,6.80
2022-11-14T21:07:31.254Z,6.90
2022-11-14T21:11:33.114Z,6.90
2022-11-14T21:15:35.277Z,6.90
2022-11-14T21:19:37.120Z,7.10
2022-11-14T21:23:39.325Z,6.90
2022-11-14T21:27:41.129Z,5.90
2022-11-14T21:31:46.845Z,7.00
2022-11-14T21:35:48.700Z,7.30
2022-11-14T21:39:50.589Z,6.80
2022-11-14T21:43:57.105Z,6.80
2022-11-14T21:47:58.956Z,6.80
2022-11-14T21:52:00.797Z,6.40
2022-11-14T21:56:17.592Z,6.40
2022-11-14T22:00:19.539Z,6.40
2022-11-14T22:04:22.760Z,6.30
2022-11-14T22:08:24.592Z,6.20
2022-11-14T22:12:26.459Z,6.20
2022-11-14T22:16:28.252Z,6.40
2022-11-14T22:20:30.082Z,6.90
2022-11-14T22:24:31.917Z,6.80
2022-11-14T22:28:33.764Z,6.10
2022-11-14T22:32:35.614Z,6.20
2022-11-14T22:36:37.539Z,6.40
2022-11-14T22:40:39.428Z,6.00
2022-11-14T22:44:41.258Z,6.20
2022-11-14T22:48:44.184Z,6.10
2022-11-14T22:52:46.010Z,6.30
2022-11-14T22:56:48.051Z,6.70
2022-11-14T23:00:50.514Z,6.80
2022-11-14T23:04:52.403Z,6.70
2022-11-14T23:08:54.490Z,6.50
2022-11-14T23:12:56.504Z,6.60
2022-11-14T23:16:58.458Z,6.80
2022-11-14T23:21:21.083Z,6.90
2022-11-14T23:25:24.102Z,6.50
2022-11-14T23:29:25.962Z,6.50
2022-11-14T23:33:28.537Z,6.40
2022-11-14T23:37:30.614Z,6.60
2022-11-14T23:41:32.483Z,6.40
2022-11-14T23:45:34.379Z,6.60
2022-11-14T23:49:36.248Z,6.30
2022-11-14T23:53:38.120Z,6.30
2022-11-14T23:57:40.013Z,6.40
